createdAt,value
2022-10-25T00:00:46.186Z,101138.88
2022-10-25T00:03:13.574Z,101139.09
2022-10-25T00:05:42.849Z,101145.31
2022-10-25T00:08:10.249Z,101147.16
2022-10-25T00:10:37.695Z,101136.53
2022-10-25T00:13:11.053Z,101143.72
2022-10-25T00:15:39.669Z,101140.28
2022-10-25T00:18:07.692Z,101135.56
2022-10-25T00:20:36.514Z,101126.63
2022-10-25T00:23:03.919Z,101121.97
2022-10-25T00:25:31.803Z,101123.75
2022-10-25T00:27:59.326Z,101106.63
2022-10-25T00:30:26.719Z,101116.16
2022-10-25T00:32:55.154Z,101112.13
2022-10-25T00:35:22.804Z,101108.41
2022-10-25T00:37:50.366Z,101107.00
2022-10-25T00:40:18.255Z,101101.44
2022-10-25T00:42:45.898Z,101096.47
2022-10-25T00:45:16.280Z,101105.72
2022-10-25T00:47:48.159Z,101092.25
2022-10-25T00:50:21.671Z,101102.66
2022-10-25T00:52:49.350Z,101102.34
2022-10-25T00:55:16.956Z,101098.28
2022-10-25T00:57:48.106Z,101099.72
2022-10-25T01:00:16.253Z,101088.53
2022-10-25T01:02:43.618Z,101081.28
2022-10-25T01:05:11.212Z,101083.38
2022-10-25T01:07:41.058Z,101076.47
2022-10-25T01:10:08.875Z,101072.66
2022-10-25T01:12:36.248Z,101077.72
2022-10-25T01:15:03.984Z,101081.84
2022-10-25T01:17:37.508Z,101070.28
2022-10-25T01:20:23.632Z,101074.09
2022-10-25T01:23:11.699Z,101075.81
2022-10-25T01:25:58.246Z,101075.16
2022-10-25T01:28:31.658Z,101065.47
2022-10-25T01:31:08.256Z,101064.09
2022-10-25T01:33:39.084Z,101073.66
2022-10-25T01:36:08.757Z,101071.09
2022-10-25T01:38:49.316Z,101070.59
2022-10-25T01:41:22.995Z,101070.13
2022-10-25T01:44:09.042Z,101066.91
2022-10-25T01:46:42.660Z,101060.88
2022-10-25T01:49:19.172Z,101066.38
2022-10-25T01:51:46.561Z,101063.06
2022-10-25T01:54:17.504Z,101062.25
2022-10-25T01:56:47.517Z,101068.72
2022-10-25T01:59:18.173Z,101066.38
2022-10-25T02:01:53.505Z,101070.50
2022-10-25T02:04:27.077Z,101080.13
2022-10-25T02:06:54.611Z,101067.06
2022-10-25T02:09:24.755Z,101073.22
2022-10-25T02:11:52.223Z,101068.72
2022-10-25T02:14:25.852Z,101064.06
2022-10-25T02:16:53.129Z,101060.44
2022-10-25T02:19:23.921Z,101067.72
2022-10-25T02:21:51.281Z,101064.66
2022-10-25T02:24:19.659Z,101062.63
2022-10-25T02:26:47.113Z,101070.72
2022-10-25T02:29:14.465Z,101065.56
2022-10-25T02:31:41.802Z,101072.16
2022-10-25T02:34:09.221Z,101073.50
2022-10-25T02:36:38.408Z,101074.81
2022-10-25T02:39:05.782Z,101079.94
2022-10-25T02:41:34.052Z,101077.31
2022-10-25T02:44:01.559Z,101079.00
2022-10-25T02:46:28.931Z,101081.56
2022-10-25T02:48:56.869Z,101068.69
2022-10-25T02:51:24.392Z,101078.41
2022-10-25T02:53:51.995Z,101073.13
2022-10-25T02:56:20.082Z,101077.25
2022-10-25T02:58:47.764Z,101065.00
2022-10-25T03:01:15.511Z,101069.38
2022-10-25T03:03:42.912Z,101062.63
2022-10-25T03:06:10.758Z,101050.09
2022-10-25T03:08:38.531Z,101048.50
2022-10-25T03:11:07.223Z,101040.00
2022-10-25T03:13:39.308Z,101049.53
2022-10-25T03:16:07.362Z,101049.25
2022-10-25T03:18:34.770Z,101048.44
2022-10-25T03:21:03.592Z,101046.47
2022-10-25T03:23:31.369Z,101055.25
2022-10-25T03:25:59.066Z,101061.44
2022-10-25T03:28:27.577Z,101062.78
2022-10-25T03:30:55.746Z,101062.69
2022-10-25T03:33:23.597Z,101060.56
2022-10-25T03:35:51.730Z,101062.81
2022-10-25T03:38:19.193Z,101066.38
2022-10-25T03:40:46.862Z,101072.72
2022-10-25T03:43:14.861Z,101069.22
2022-10-25T03:45:42.384Z,101073.22
2022-10-25T03:48:10.574Z,101082.19
2022-10-25T03:50:38.030Z,101071.38
2022-10-25T03:53:05.593Z,101084.84
2022-10-25T03:55:33.711Z,101080.13
2022-10-25T03:58:01.219Z,101078.31
2022-10-25T04:00:28.628Z,101081.56
2022-10-25T04:03:01.895Z,101082.34
2022-10-25T04:05:30.637Z,101070.25
2022-10-25T04:07:59.993Z,101072.94
2022-10-25T04:10:27.522Z,101064.75
2022-10-25T04:12:56.743Z,101073.94
2022-10-25T04:15:24.314Z,101068.47
2022-10-25T04:17:52.148Z,101064.63
2022-10-25T04:20:20.434Z,101067.84
2022-10-25T04:22:54.443Z,101052.53
2022-10-25T04:25:22.073Z,101060.94
2022-10-25T04:27:49.628Z,101063.91
2022-10-25T04:30:17.294Z,101064.50
2022-10-25T04:32:45.182Z,101066.66
2022-10-25T04:35:14.063Z,101061.75
2022-10-25T04:37:41.350Z,101074.56
2022-10-25T04:40:09.076Z,101070.25
2022-10-25T04:42:37.062Z,101071.78
2022-10-25T04:45:04.586Z,101074.53
2022-10-25T04:47:32.603Z,101076.13
2022-10-25T04:49:59.917Z,101074.56
2022-10-25T04:52:28.740Z,101085.31
2022-10-25T04:54:56.482Z,101084.22
2022-10-25T17:15:15.649Z,100837.31
2022-10-25T17:17:43.342Z,100823.88
2022-10-25T17:20:10.914Z,100820.81
2022-10-25T17:22:38.571Z,100809.31
2022-10-25T17:25:07.528Z,100819.34
2022-10-25T17:27:40.026Z,100811.28
2022-10-25T17:30:09.741Z,100815.19
2022-10-25T17:32:37.989Z,100814.09
2022-10-25T17:35:08.277Z,100819.66
2022-10-25T17:37:35.909Z,100810.72
2022-10-25T17:40:03.352Z,100842.78
2022-10-25T17:42:30.822Z,100801.22
2022-10-25T17:44:58.202Z,100814.59
2022-10-25T17:47:25.581Z,100793.88
2022-10-25T17:49:54.481Z,100793.34
2022-10-25T17:52:21.740Z,100798.06
2022-10-25T17:54:49.250Z,100783.88
2022-10-25T17:57:16.936Z,100787.78
2022-10-25T17:59:44.243Z,100791.91
2022-10-25T18:02:11.822Z,100788.31
2022-10-25T18:04:53.829Z,100782.38
2022-10-25T18:07:29.978Z,100785.19
2022-10-25T18:10:01.417Z,100789.63
2022-10-25T18:12:33.211Z,100779.03
2022-10-25T18:15:00.577Z,100775.97
2022-10-25T18:17:28.670Z,100782.84
2022-10-25T18:19:59.450Z,100792.09
2022-10-25T18:22:27.189Z,100779.00
2022-10-25T18:24:54.663Z,100806.53
2022-10-25T18:27:22.600Z,100791.53
2022-10-25T18:29:50.019Z,100761.94
2022-10-25T18:32:17.385Z,100767.84
2022-10-25T18:34:45.337Z,100772.84
2022-10-25T18:37:12.610Z,100764.50
2022-10-25T18:39:39.935Z,100766.41
2022-10-25T18:42:07.380Z,100758.88
2022-10-25T18:44:34.988Z,100762.53
2022-10-25T18:47:04.186Z,100756.91
2022-10-25T18:49:31.532Z,100764.47
2022-10-25T18:51:59.798Z,100774.47
2022-10-25T18:54:28.553Z,100762.53
2022-10-25T18:56:56.264Z,100785.03
2022-10-25T18:59:23.622Z,100772.50
2022-10-25T19:01:51.179Z,100761.69
2022-10-25T19:04:18.590Z,100777.00
2022-10-25T19:06:46.466Z,100762.25
2022-10-25T19:09:15.031Z,100774.22
2022-10-25T19:11:42.360Z,100768.63
2022-10-25T19:14:13.722Z,100781.44
2022-10-25T19:16:42.550Z,100778.03
2022-10-25T19:19:15.104Z,100779.91
2022-10-25T19:21:43.590Z,100791.88
2022-10-25T19:24:15.875Z,100761.22
2022-10-25T19:26:44.176Z,100774.56
2022-10-25T19:29:11.599Z,100753.75
2022-10-25T19:31:39.872Z,100764.91
2022-10-25T19:34:07.209Z,100745.41
2022-10-25T19:36:35.253Z,100752.97
2022-10-25T19:39:03.588Z,100735.19
2022-10-25T19:41:31.824Z,100732.06
2022-10-25T19:43:59.411Z,100729.03
2022-10-25T19:46:27.029Z,100744.06
2022-10-25T19:48:56.315Z,100727.63
2022-10-25T19:51:23.872Z,100725.13
2022-10-25T19:53:51.426Z,100721.78
2022-10-25T19:56:19.618Z,100730.66
2022-10-25T19:58:47.424Z,100728.66
2022-10-25T20:01:17.092Z,100730.59
2022-10-25T20:03:45.060Z,100735.06
2022-10-25T20:06:13.808Z,100758.44
2022-10-25T20:08:41.374Z,100722.75
2022-10-25T20:11:11.047Z,100723.34
2022-10-25T20:13:38.540Z,100722.47
2022-10-25T20:16:06.833Z,100714.69
2022-10-25T20:18:35.829Z,100720.53
2022-10-25T20:21:04.954Z,100699.94
2022-10-25T20:23:32.484Z,100706.63
2022-10-25T20:25:59.962Z,100725.22
2022-10-25T20:28:27.742Z,100727.50
2022-10-25T20:30:55.829Z,100705.44
2022-10-25T20:33:24.722Z,100698.19
2022-10-25T20:35:53.576Z,100687.00
2022-10-25T20:38:21.014Z,100707.59
2022-10-25T20:40:49.234Z,100693.72
2022-10-25T20:43:16.613Z,100680.38
2022-10-25T20:45:48.237Z,100671.97
2022-10-25T20:48:15.815Z,100667.88
2022-10-25T20:50:49.763Z,100663.97
2022-10-25T20:53:18.000Z,100659.19
2022-10-25T20:55:45.752Z,100663.16
2022-10-25T20:58:13.137Z,100651.72
2022-10-25T21:00:41.403Z,100654.44
2022-10-25T21:03:08.915Z,100654.53
2022-10-25T21:05:43.065Z,100662.34
2022-10-25T21:08:14.363Z,100659.88
2022-10-25T21:10:42.108Z,100660.13
2022-10-25T21:13:10.242Z,100654.28
2022-10-25T21:15:39.121Z,100653.47
2022-10-25T21:18:06.546Z,100653.47
2022-10-25T21:20:34.467Z,100658.16
2022-10-25T21:23:02.393Z,100667.81
2022-10-25T21:25:29.918Z,100669.97
2022-10-25T21:27:57.242Z,100664.25
2022-10-25T21:30:24.634Z,100674.22
2022-10-25T21:32:52.739Z,100655.56
2022-10-25T21:35:20.893Z,100676.63
2022-10-25T21:37:49.268Z,100653.53
2022-10-25T21:40:17.387Z,100663.88
2022-10-25T21:42:44.963Z,100662.22
2022-10-25T21:45:12.356Z,100669.16
2022-10-25T21:47:40.065Z,100660.22
2022-10-25T21:50:09.361Z,100662.16
2022-10-25T21:52:36.863Z,100662.16
2022-10-25T21:55:05.034Z,100649.09
2022-10-25T21:57:32.504Z,100647.44
2022-10-25T21:59:59.952Z,100654.66
2022-10-25T22:02:27.494Z,100641.31
2022-10-25T22:04:55.240Z,100640.44
2022-10-25T22:07:23.530Z,100633.81
2022-10-25T22:09:51.020Z,100638.81
2022-10-25T22:12:18.883Z,100648.56
2022-10-25T22:14:46.212Z,100630.19
2022-10-25T22:17:13.951Z,100629.34
2022-10-25T22:19:42.369Z,100614.84
2022-10-25T22:22:11.764Z,100614.03
2022-10-25T22:24:39.347Z,100616.84
2022-10-25T22:27:06.750Z,100621.53
2022-10-25T22:29:34.576Z,100633.22
2022-10-25T22:32:04.092Z,100608.88
2022-10-25T22:34:31.694Z,100599.63
2022-10-25T22:37:01.407Z,100595.63
2022-10-25T22:39:29.036Z,100605.81
2022-10-25T22:41:56.455Z,100598.84
2022-10-25T22:44:23.921Z,100601.34
2022-10-25T22:46:51.267Z,100597.47
2022-10-25T22:49:21.804Z,100596.59
2022-10-25T22:51:49.219Z,100607.13
2022-10-25T22:54:16.481Z,100603.50
2022-10-25T22:56:44.800Z,100632.63
2022-10-25T22:59:12.491Z,100602.06
2022-10-25T23:01:39.815Z,100607.88
2022-10-25T23:04:08.106Z,100605.66
2022-10-25T23:06:36.427Z,100598.63
2022-10-25T23:09:05.742Z,100612.25
2022-10-25T23:11:33.882Z,100595.78
2022-10-25T23:14:01.567Z,100622.75
2022-10-25T23:16:33.143Z,100619.63
2022-10-25T23:19:02.591Z,100603.25
2022-10-25T23:21:33.572Z,100609.97
2022-10-25T23:24:01.399Z,100601.31
2022-10-25T23:26:30.123Z,100602.38
2022-10-25T23:28:57.717Z,100600.19
2022-10-25T23:31:25.469Z,100608.03
2022-10-25T23:33:54.048Z,100596.00
2022-10-25T23:36:22.152Z,100615.41
2022-10-25T23:38:50.032Z,100597.84
2022-10-25T23:41:17.825Z,100602.81
2022-10-25T23:43:45.766Z,100610.38
2022-10-25T23:46:13.188Z,100580.59
2022-10-25T23:48:40.620Z,100591.91
2022-10-25T23:51:08.712Z,100602.81
2022-10-25T23:53:39.058Z,100581.44
2022-10-25T23:56:07.347Z,100573.94
2022-10-25T23:58:34.676Z,100605.53
